Relevés horaires Florennes (Belgique)


Relevés horaires à Florennes - Mercredi 29 Avr. 2026
Heure UTC1 Température [°C] Vent [km/h] Hum. [%] Pres.4 [hPa] Visi. [Km] Nébu. [octa] Préc.5 [mm] Cond.
2m. Res. Ros. Dir.2 Vit. Moy. Raf.3
23:00 10.6 10.6 -2.9 E 3.7 -- 13.0 39 1024.2(1.0/3h) >70 -- -- --
22:00 10.5 9.3 -2.3 ENE 9.3 -- 13.0 41 1023.8(1.4/3h) >70 -- -- --
21:00 11.4 10.8 -2.1 E 7.4 -- 14.8 39 1023.2(1.7/3h) >70 -- -- --
20:00 13.1 13.1 -2.4 E 3.7 -- 9.3 34 1022.8(1.5/3h) >70 -- -- --
19:00 13.8 13.6 -0.3 ENE 7.4 -- 14.8 38 1021.8(0.8/3h) >70 -- -- --
18:00 16.6 16.6 -0.6 ENE 9.3 -- 22.2 31 1020.8(0.0/3h) >70 -- -- --
17:00 17.7 17.6 -0.7 NE 13.0 -- 20.4 29 1020.6(-0.1/3h) >70 -- -- --
16:00 18.4 18.4 -0.1 NE 13.0 -- 22.2 29 1020.5(-0.2/3h) >70 -- -- --
15:00 18.7 18.7 0.5 NE 14.8 -- 22.2 29 1020.6(-0.4/3h) >70 -- -- --
14:00 18.7 18.7 2.0 NE 14.8 -- 20.4 33 1020.6(-0.6/3h) 20 1/8 -- --
13:00 19.1 19.1 2.6 NE 13.0 -- 18.5 33 1020.6(-0.6/3h) 20 1/8 -- --
12:00 18.2 18.2 1.6 ENE 11.1 -- 20.4 33 1021.2(-0.1/3h) 20 1/8 -- --
11:00 17.1 17 1.4 ENE 11.1 -- 20.4 35 1021.3(0.2/3h) 20 1/8 -- --
10:00 15.9 15.4 2.7 NE 13.0 -- 16.7 41 1021.6(0.4/3h) 20 1/8 -- --
09:00 14.0 13.3 1.7 ENE 11.1 -- 18.5 43 1021.7(0.4/3h) 20 1/8 -- --
08:00 11.5 10.3 0.5 ENE 11.1 -- 16.7 47 1021.8(0.8/3h) 20 1/8 -- --
07:00 9.3 7.9 -0.3 ENE 9.3 -- 14.8 51 1022(0.6/3h) 20 0/8 -- --
06:00 8.0 6.4 -- ENE 9.3 -- 13.0 -- 1022(0.8/3h) 20 0/8 -- --
05:00 6.7 4.8 0.5 NE 9.3 -- 13.0 65 1021.7(0.6/3h) >70 -- -- --
04:00 6.6 5.2 1.1 ENE 7.4 -- 11.1 68 1021.6(0.4/3h) >70 -- -- --
03:00 7.5 6.2 1.0 NE 7.4 -- 11.1 63 1021.2(0.0/3h) >70 -- -- --
02:00 8.2 6.6 1.7 ENE 9.3 -- 11.1 64 1020.7(0.0/3h) >70 -- -- --
01:00 9.0 8 2.0 ENE 7.4 -- 11.1 61 1020.8(0.4/3h) >70 -- -- --
00:00 9.8 8.9 2.2 NE 7.4 -- 20.4 59 1020.7(0.7/3h) >70 -- -- --

1 Coordinated Universal Time. Actuellement il est 01:00 locale et 23:00 UTC.

2 Le vent souffle depuis la direction indiquée vers la direction oposée.

3 Les rafales max. sont disponible 40 min après l'heure du relevé.

4 Pour les stations d'altitude (plus de 600m) le géopotentiel du niveau le plus proche de la pression obligatoire est indiqué.

5 Les stations disposant d'un diffuseur peuvent indiquer "trace". Cela signifie que des précipitations ont touchés le sol mais que la quantité est inférieure à 0.1 mm.

Récapitulatif de la journée
Température [°C] Vent [km/h] Ensoleillement4 [h] Precipitations totale5 [mm] Pression [Hpa]
Min1 Max.2 Moy.3 Max. Min Max.
6.2 19.6 0 22.2 0 h 0 min 0 1020.5 1024.2

1 Température minimale relevée entre 18:00 UTC la veille et 18:00 UTC le jour donné.

2 Température maximale relevée entre 06:00 UTC le jour donné et 06:00 UTC le lendemain.

3 Vent moyen de la journée basé sur les relevés horaires.

4 Ensoleillement en heures relevé entre 06:00 UTC la veille et 06:00 UTC le jour donné.

5 Précipitations totales tombées entre 06:00 UTC la jour donné et 06:00 UTC le lendemain.

Graphiques horaires